sensor_id;sensor_type;location;lat;lon;timestamp;temperature;humidity
54832;DHT22;40730;53.068;6.572;2023-06-14T00:00:39;16.80;98.90
54832;DHT22;40730;53.068;6.572;2023-06-14T00:03:09;16.30;99.00
54832;DHT22;40730;53.068;6.572;2023-06-14T00:05:36;16.20;99.20
54832;DHT22;40730;53.068;6.572;2023-06-14T00:08:06;16.20;99.40
54832;DHT22;40730;53.068;6.572;2023-06-14T00:10:36;16.20;99.70
54832;DHT22;40730;53.068;6.572;2023-06-14T00:13:05;16.30;99.90
54832;DHT22;40730;53.068;6.572;2023-06-14T00:15:32;16.00;99.90
54832;DHT22;40730;53.068;6.572;2023-06-14T00:17:58;16.00;99.90
54832;DHT22;40730;53.068;6.572;2023-06-14T00:20:27;16.00;99.90
54832;DHT22;40730;53.068;6.572;2023-06-14T00:22:54;15.90;99.90
54832;DHT22;40730;53.068;6.572;2023-06-14T00:25:22;15.90;99.90
54832;DHT22;40730;53.068;6.572;2023-06-14T00:27:47;16.10;99.90
54832;DHT22;40730;53.068;6.572;2023-06-14T00:30:13;15.90;99.90
54832;DHT22;40730;53.068;6.572;2023-06-14T00:32:39;15.80;99.90
54832;DHT22;40730;53.068;6.572;2023-06-14T00:35:05;16.20;99.90
54832;DHT22;40730;53.068;6.572;2023-06-14T00:37:31;15.80;99.90
54832;DHT22;40730;53.068;6.572;2023-06-14T00:39:56;15.70;99.90
54832;DHT22;40730;53.068;6.572;2023-06-14T00:42:26;15.70;99.90
54832;DHT22;40730;53.068;6.572;2023-06-14T00:44:51;15.60;99.90
54832;DHT22;40730;53.068;6.572;2023-06-14T00:47:17;15.60;99.90
54832;DHT22;40730;53.068;6.572;2023-06-14T00:49:45;15.60;99.90
54832;DHT22;40730;53.068;6.572;2023-06-14T00:52:11;15.70;99.90
54832;DHT22;40730;53.068;6.572;2023-06-14T00:54:39;15.50;99.90
54832;DHT22;40730;53.068;6.572;2023-06-14T00:57:05;16.10;99.90
54832;DHT22;40730;53.068;6.572;2023-06-14T00:59:31;15.50;99.90
54832;DHT22;40730;53.068;6.572;2023-06-14T01:01:57;15.70;99.90
54832;DHT22;40730;53.068;6.572;2023-06-14T01:04:22;15.40;99.90
54832;DHT22;40730;53.068;6.572;2023-06-14T01:10:02;15.40;99.90
54832;DHT22;40730;53.068;6.572;2023-06-14T01:15:02;15.30;99.90
54832;DHT22;40730;53.068;6.572;2023-06-14T01:17:29;15.30;99.90
54832;DHT22;40730;53.068;6.572;2023-06-14T01:19:58;15.40;99.90
54832;DHT22;40730;53.068;6.572;2023-06-14T01:22:28;15.50;99.90
54832;DHT22;40730;53.068;6.572;2023-06-14T01:24:54;15.60;99.90
54832;DHT22;40730;53.068;6.572;2023-06-14T01:27:24;15.10;99.90
54832;DHT22;40730;53.068;6.572;2023-06-14T01:29:54;15.10;99.90
54832;DHT22;40730;53.068;6.572;2023-06-14T01:32:24;15.00;99.90
54832;DHT22;40730;53.068;6.572;2023-06-14T01:34:50;15.40;99.90
54832;DHT22;40730;53.068;6.572;2023-06-14T01:37:16;15.00;99.90
54832;DHT22;40730;53.068;6.572;2023-06-14T01:39:43;15.00;99.90
54832;DHT22;40730;53.068;6.572;2023-06-14T01:42:10;14.90;99.90
54832;DHT22;40730;53.068;6.572;2023-06-14T01:44:37;14.90;99.90
54832;DHT22;40730;53.068;6.572;2023-06-14T01:47:03;14.90;99.90
54832;DHT22;40730;53.068;6.572;2023-06-14T01:49:28;14.80;99.90
54832;DHT22;40730;53.068;6.572;2023-06-14T01:51:54;14.80;99.90
54832;DHT22;40730;53.068;6.572;2023-06-14T01:54:20;14.80;99.90
54832;DHT22;40730;53.068;6.572;2023-06-14T01:56:47;14.70;99.90
54832;DHT22;40730;53.068;6.572;2023-06-14T01:59:12;14.70;99.90
54832;DHT22;40730;53.068;6.572;2023-06-14T02:01:38;15.00;99.90
54832;DHT22;40730;53.068;6.572;2023-06-14T02:04:03;14.60;99.90
54832;DHT22;40730;53.068;6.572;2023-06-14T02:06:30;14.60;99.90
54832;DHT22;40730;53.068;6.572;2023-06-14T02:08:55;14.60;99.90
54832;DHT22;40730;53.068;6.572;2023-06-14T02:11:21;14.50;99.90
54832;DHT22;40730;53.068;6.572;2023-06-14T02:13:46;14.30;99.90
54832;DHT22;40730;53.068;6.572;2023-06-14T02:16:12;14.70;99.90
54832;DHT22;40730;53.068;6.572;2023-06-14T02:18:38;14.80;99.90
54832;DHT22;40730;53.068;6.572;2023-06-14T02:21:03;14.40;99.90
54832;DHT22;40730;53.068;6.572;2023-06-14T02:23:29;14.40;99.90
54832;DHT22;40730;53.068;6.572;2023-06-14T02:25:54;14.40;99.90
54832;DHT22;40730;53.068;6.572;2023-06-14T02:28:20;14.30;99.90
54832;DHT22;40730;53.068;6.572;2023-06-14T02:30:46;14.50;99.90
54832;DHT22;40730;53.068;6.572;2023-06-14T02:33:12;14.80;99.90
54832;DHT22;40730;53.068;6.572;2023-06-14T02:35:38;14.20;99.90
54832;DHT22;40730;53.068;6.572;2023-06-14T02:38:04;14.50;99.90
54832;DHT22;40730;53.068;6.572;2023-06-14T02:40:29;14.20;99.90
54832;DHT22;40730;53.068;6.572;2023-06-14T02:42:55;14.10;99.90
54832;DHT22;40730;53.068;6.572;2023-06-14T02:45:21;14.10;99.90
54832;DHT22;40730;53.068;6.572;2023-06-14T02:47:46;14.10;99.90
54832;DHT22;40730;53.068;6.572;2023-06-14T02:50:12;14.10;99.90
54832;DHT22;40730;53.068;6.572;2023-06-14T02:52:37;14.00;99.90
54832;DHT22;40730;53.068;6.572;2023-06-14T02:55:03;14.00;99.90
54832;DHT22;40730;53.068;6.572;2023-06-14T02:57:30;14.00;99.90
54832;DHT22;40730;53.068;6.572;2023-06-14T02:59:55;14.00;99.90
54832;DHT22;40730;53.068;6.572;2023-06-14T03:02:21;14.70;99.90
54832;DHT22;40730;53.068;6.572;2023-06-14T03:04:46;14.30;99.90
54832;DHT22;40730;53.068;6.572;2023-06-14T03:07:12;14.20;99.90
54832;DHT22;40730;53.068;6.572;2023-06-14T03:09:39;13.90;99.90
54832;DHT22;40730;53.068;6.572;2023-06-14T03:12:05;13.90;99.90
54832;DHT22;40730;53.068;6.572;2023-06-14T03:14:35;13.90;99.90
54832;DHT22;40730;53.068;6.572;2023-06-14T03:17:01;13.90;99.90
54832;DHT22;40730;53.068;6.572;2023-06-14T03:19:26;13.90;99.90
54832;DHT22;40730;53.068;6.572;2023-06-14T03:21:52;13.90;99.90
54832;DHT22;40730;53.068;6.572;2023-06-14T03:24:19;13.90;99.90
54832;DHT22;40730;53.068;6.572;2023-06-14T03:26:45;13.90;99.90
54832;DHT22;40730;53.068;6.572;2023-06-14T03:29:11;13.90;99.90
54832;DHT22;40730;53.068;6.572;2023-06-14T03:31:40;13.90;99.90
54832;DHT22;40730;53.068;6.572;2023-06-14T03:34:06;13.90;99.90
54832;DHT22;40730;53.068;6.572;2023-06-14T03:36:32;13.80;99.90
54832;DHT22;40730;53.068;6.572;2023-06-14T03:38:58;14.00;99.90
54832;DHT22;40730;53.068;6.572;2023-06-14T03:41:24;14.20;99.90
54832;DHT22;40730;53.068;6.572;2023-06-14T03:43:51;13.90;99.90
54832;DHT22;40730;53.068;6.572;2023-06-14T03:46:17;13.90;99.90
54832;DHT22;40730;53.068;6.572;2023-06-14T03:48:42;14.20;99.90
54832;DHT22;40730;53.068;6.572;2023-06-14T03:51:08;14.20;99.90
54832;DHT22;40730;53.068;6.572;2023-06-14T03:53:33;14.00;99.90
54832;DHT22;40730;53.068;6.572;2023-06-14T03:56:01;13.90;99.90
54832;DHT22;40730;53.068;6.572;2023-06-14T03:58:26;14.00;99.90
54832;DHT22;40730;53.068;6.572;2023-06-14T04:00:53;14.10;99.90
54832;DHT22;40730;53.068;6.572;2023-06-14T04:03:18;14.10;99.90
54832;DHT22;40730;53.068;6.572;2023-06-14T04:05:45;14.40;99.90
54832;DHT22;40730;53.068;6.572;2023-06-14T04:08:14;14.30;99.90
54832;DHT22;40730;53.068;6.572;2023-06-14T04:10:41;14.20;99.90
54832;DHT22;40730;53.068;6.572;2023-06-14T04:13:06;14.80;99.90
54832;DHT22;40730;53.068;6.572;2023-06-14T04:15:32;14.60;99.90
54832;DHT22;40730;53.068;6.572;2023-06-14T04:17:58;14.50;99.90
54832;DHT22;40730;53.068;6.572;2023-06-14T04:20:24;14.80;99.90
54832;DHT22;40730;53.068;6.572;2023-06-14T04:22:51;15.10;99.90
54832;DHT22;40730;53.068;6.572;2023-06-14T04:25:18;15.10;99.90
54832;DHT22;40730;53.068;6.572;2023-06-14T04:27:43;15.10;99.90
54832;DHT22;40730;53.068;6.572;2023-06-14T04:30:09;15.00;99.90
54832;DHT22;40730;53.068;6.572;2023-06-14T04:32:35;15.00;99.90
54832;DHT22;40730;53.068;6.572;2023-06-14T04:35:06;15.10;99.90
54832;DHT22;40730;53.068;6.572;2023-06-14T04:37:32;15.10;99.90
54832;DHT22;40730;53.068;6.572;2023-06-14T04:39:58;15.20;99.90
54832;DHT22;40730;53.068;6.572;2023-06-14T04:42:25;15.30;99.90
54832;DHT22;40730;53.068;6.572;2023-06-14T04:44:56;15.50;99.90
54832;DHT22;40730;53.068;6.572;2023-06-14T04:47:21;15.70;99.90
54832;DHT22;40730;53.068;6.572;2023-06-14T04:49:47;15.70;99.90
54832;DHT22;40730;53.068;6.572;2023-06-14T04:52:13;15.60;99.90
54832;DHT22;40730;53.068;6.572;2023-06-14T04:54:39;15.50;99.90
54832;DHT22;40730;53.068;6.572;2023-06-14T04:57:10;15.60;99.90
54832;DHT22;40730;53.068;6.572;2023-06-14T04:59:39;15.50;99.90
54832;DHT22;40730;53.068;6.572;2023-06-14T05:02:05;15.40;99.90
54832;DHT22;40730;53.068;6.572;2023-06-14T05:04:32;15.40;99.90
54832;DHT22;40730;53.068;6.572;2023-06-14T05:06:58;15.50;99.90
54832;DHT22;40730;53.068;6.572;2023-06-14T05:09:23;15.50;99.90
54832;DHT22;40730;53.068;6.572;2023-06-14T05:11:49;15.50;99.90
54832;DHT22;40730;53.068;6.572;2023-06-14T05:14:16;15.50;99.90
54832;DHT22;40730;53.068;6.572;2023-06-14T05:16:42;15.60;99.90
54832;DHT22;40730;53.068;6.572;2023-06-14T05:19:08;15.60;99.90
54832;DHT22;40730;53.068;6.572;2023-06-14T05:21:36;15.60;99.90
54832;DHT22;40730;53.068;6.572;2023-06-14T05:24:02;15.60;99.90
54832;DHT22;40730;53.068;6.572;2023-06-14T05:26:28;15.70;99.90
54832;DHT22;40730;53.068;6.572;2023-06-14T05:28:57;15.80;99.90
54832;DHT22;40730;53.068;6.572;2023-06-14T05:31:24;15.80;99.90
54832;DHT22;40730;53.068;6.572;2023-06-14T05:33:51;15.80;99.90
54832;DHT22;40730;53.068;6.572;2023-06-14T05:36:17;15.80;99.90
54832;DHT22;40730;53.068;6.572;2023-06-14T05:38:43;16.00;99.90
54832;DHT22;40730;53.068;6.572;2023-06-14T05:41:09;16.00;99.90
54832;DHT22;40730;53.068;6.572;2023-06-14T05:43:34;16.00;99.90
54832;DHT22;40730;53.068;6.572;2023-06-14T05:46:00;16.10;99.90
54832;DHT22;40730;53.068;6.572;2023-06-14T05:48:25;16.10;99.90
54832;DHT22;40730;53.068;6.572;2023-06-14T05:50:51;16.20;99.90
54832;DHT22;40730;53.068;6.572;2023-06-14T05:53:17;16.30;99.90
54832;DHT22;40730;53.068;6.572;2023-06-14T05:55:43;16.30;99.90
54832;DHT22;40730;53.068;6.572;2023-06-14T05:58:08;16.40;99.90
54832;DHT22;40730;53.068;6.572;2023-06-14T06:00:34;16.50;99.90
54832;DHT22;40730;53.068;6.572;2023-06-14T06:03:00;16.50;99.90
54832;DHT22;40730;53.068;6.572;2023-06-14T06:05:26;16.70;99.90
54832;DHT22;40730;53.068;6.572;2023-06-14T06:07:51;17.30;99.90
54832;DHT22;40730;53.068;6.572;2023-06-14T06:10:17;16.70;99.90
54832;DHT22;40730;53.068;6.572;2023-06-14T06:12:43;16.90;99.90
54832;DHT22;40730;53.068;6.572;2023-06-14T06:15:09;16.90;99.90
54832;DHT22;40730;53.068;6.572;2023-06-14T06:17:38;17.10;99.90
54832;DHT22;40730;53.068;6.572;2023-06-14T06:20:04;17.10;99.90
54832;DHT22;40730;53.068;6.572;2023-06-14T06:22:31;17.20;99.90
54832;DHT22;40730;53.068;6.572;2023-06-14T06:24:57;17.30;99.90
54832;DHT22;40730;53.068;6.572;2023-06-14T06:27:23;17.50;99.90
54832;DHT22;40730;53.068;6.572;2023-06-14T06:29:48;17.70;99.90
54832;DHT22;40730;53.068;6.572;2023-06-14T06:32:15;17.90;99.90
54832;DHT22;40730;53.068;6.572;2023-06-14T06:34:41;18.10;99.90
54832;DHT22;40730;53.068;6.572;2023-06-14T06:37:06;18.30;99.90
54832;DHT22;40730;53.068;6.572;2023-06-14T06:39:33;18.50;99.90
54832;DHT22;40730;53.068;6.572;2023-06-14T06:41:58;18.80;99.90
54832;DHT22;40730;53.068;6.572;2023-06-14T06:44:24;19.00;99.90
54832;DHT22;40730;53.068;6.572;2023-06-14T06:46:50;19.30;99.90
54832;DHT22;40730;53.068;6.572;2023-06-14T06:49:15;19.50;99.90
54832;DHT22;40730;53.068;6.572;2023-06-14T06:51:41;19.70;99.90
54832;DHT22;40730;53.068;6.572;2023-06-14T06:54:08;19.90;99.90
54832;DHT22;40730;53.068;6.572;2023-06-14T06:56:35;20.10;99.90
54832;DHT22;40730;53.068;6.572;2023-06-14T06:59:00;20.20;99.90
54832;DHT22;40730;53.068;6.572;2023-06-14T07:01:26;20.40;99.90
54832;DHT22;40730;53.068;6.572;2023-06-14T07:03:54;20.60;99.90
54832;DHT22;40730;53.068;6.572;2023-06-14T07:06:20;20.80;98.70
54832;DHT22;40730;53.068;6.572;2023-06-14T07:08:46;21.10;97.80
54832;DHT22;40730;53.068;6.572;2023-06-14T07:11:14;21.30;97.20
54832;DHT22;40730;53.068;6.572;2023-06-14T07:13:39;21.40;97.20
54832;DHT22;40730;53.068;6.572;2023-06-14T07:16:05;21.40;96.30
54832;DHT22;40730;53.068;6.572;2023-06-14T07:18:31;21.60;96.20
54832;DHT22;40730;53.068;6.572;2023-06-14T07:20:57;21.70;95.70
54832;DHT22;40730;53.068;6.572;2023-06-14T07:23:23;21.80;94.90
54832;DHT22;40730;53.068;6.572;2023-06-14T07:25:49;21.90;94.40
54832;DHT22;40730;53.068;6.572;2023-06-14T07:28:16;22.00;93.40
54832;DHT22;40730;53.068;6.572;2023-06-14T07:30:42;22.20;92.70
54832;DHT22;40730;53.068;6.572;2023-06-14T07:33:07;22.30;92.30
54832;DHT22;40730;53.068;6.572;2023-06-14T07:35:33;22.40;91.20
54832;DHT22;40730;53.068;6.572;2023-06-14T07:37:59;22.40;91.30
54832;DHT22;40730;53.068;6.572;2023-06-14T07:40:25;22.50;91.60
54832;DHT22;40730;53.068;6.572;2023-06-14T07:42:50;22.70;91.70
54832;DHT22;40730;53.068;6.572;2023-06-14T07:45:16;23.00;91.40
54832;DHT22;40730;53.068;6.572;2023-06-14T07:47:42;23.00;90.00
54832;DHT22;40730;53.068;6.572;2023-06-14T07:50:08;22.90;89.70
54832;DHT22;40730;53.068;6.572;2023-06-14T07:52:34;23.10;87.70
54832;DHT22;40730;53.068;6.572;2023-06-14T07:54:59;23.00;88.30
54832;DHT22;40730;53.068;6.572;2023-06-14T07:57:26;23.10;87.90
54832;DHT22;40730;53.068;6.572;2023-06-14T07:59:52;23.30;86.70
54832;DHT22;40730;53.068;6.572;2023-06-14T08:02:18;23.40;86.10
54832;DHT22;40730;53.068;6.572;2023-06-14T08:04:44;23.50;88.70
54832;DHT22;40730;53.068;6.572;2023-06-14T08:07:09;23.70;84.00
54832;DHT22;40730;53.068;6.572;2023-06-14T08:09:35;23.60;81.20
54832;DHT22;40730;53.068;6.572;2023-06-14T08:12:04;23.30;80.30
54832;DHT22;40730;53.068;6.572;2023-06-14T08:14:33;23.50;79.90
54832;DHT22;40730;53.068;6.572;2023-06-14T08:16:59;23.60;78.80
54832;DHT22;40730;53.068;6.572;2023-06-14T08:19:24;23.60;77.90
54832;DHT22;40730;53.068;6.572;2023-06-14T08:21:50;23.50;76.30
54832;DHT22;40730;53.068;6.572;2023-06-14T08:24:16;23.70;74.90
54832;DHT22;40730;53.068;6.572;2023-06-14T08:26:43;24.10;73.90
54832;DHT22;40730;53.068;6.572;2023-06-14T08:29:08;24.20;73.50
54832;DHT22;40730;53.068;6.572;2023-06-14T08:31:34;24.60;73.80
54832;DHT22;40730;53.068;6.572;2023-06-14T08:34:00;24.30;73.60
54832;DHT22;40730;53.068;6.572;2023-06-14T08:36:25;24.50;72.70
54832;DHT22;40730;53.068;6.572;2023-06-14T08:38:51;24.60;72.50
54832;DHT22;40730;53.068;6.572;2023-06-14T08:41:23;24.20;69.20
54832;DHT22;40730;53.068;6.572;2023-06-14T08:43:50;24.40;69.90
54832;DHT22;40730;53.068;6.572;2023-06-14T08:46:18;24.80;69.70
54832;DHT22;40730;53.068;6.572;2023-06-14T08:48:51;25.00;68.00
54832;DHT22;40730;53.068;6.572;2023-06-14T08:51:21;25.00;67.70
54832;DHT22;40730;53.068;6.572;2023-06-14T08:53:53;25.30;67.80
54832;DHT22;40730;53.068;6.572;2023-06-14T08:56:26;25.70;65.80
54832;DHT22;40730;53.068;6.572;2023-06-14T08:58:53;25.70;64.60
54832;DHT22;40730;53.068;6.572;2023-06-14T09:01:18;25.60;63.50
54832;DHT22;40730;53.068;6.572;2023-06-14T09:03:47;25.50;63.80
54832;DHT22;40730;53.068;6.572;2023-06-14T09:06:14;25.70;62.00
54832;DHT22;40730;53.068;6.572;2023-06-14T09:08:42;25.80;61.30
54832;DHT22;40730;53.068;6.572;2023-06-14T09:11:10;25.90;61.50
54832;DHT22;40730;53.068;6.572;2023-06-14T09:13:36;26.00;60.30
54832;DHT22;40730;53.068;6.572;2023-06-14T09:16:02;26.00;59.70
54832;DHT22;40730;53.068;6.572;2023-06-14T09:21:00;26.30;59.10
54832;DHT22;40730;53.068;6.572;2023-06-14T09:23:26;26.20;59.00
54832;DHT22;40730;53.068;6.572;2023-06-14T09:25:51;26.30;59.00
54832;DHT22;40730;53.068;6.572;2023-06-14T09:28:17;26.10;58.70
54832;DHT22;40730;53.068;6.572;2023-06-14T09:30:43;26.40;59.10
54832;DHT22;40730;53.068;6.572;2023-06-14T09:33:08;26.90;59.90
54832;DHT22;40730;53.068;6.572;2023-06-14T09:35:34;26.80;58.60
54832;DHT22;40730;53.068;6.572;2023-06-14T09:38:00;27.00;58.70
54832;DHT22;40730;53.068;6.572;2023-06-14T09:40:26;27.40;57.80
54832;DHT22;40730;53.068;6.572;2023-06-14T09:42:52;27.30;56.60
54832;DHT22;40730;53.068;6.572;2023-06-14T09:45:18;27.30;56.00
54832;DHT22;40730;53.068;6.572;2023-06-14T09:47:49;27.20;55.90
54832;DHT22;40730;53.068;6.572;2023-06-14T09:50:15;26.60;55.90
54832;DHT22;40730;53.068;6.572;2023-06-14T09:52:43;26.60;56.50
54832;DHT22;40730;53.068;6.572;2023-06-14T09:55:12;26.80;55.70
54832;DHT22;40730;53.068;6.572;2023-06-14T09:57:41;26.70;55.20
54832;DHT22;40730;53.068;6.572;2023-06-14T10:00:08;26.90;54.70
54832;DHT22;40730;53.068;6.572;2023-06-14T10:02:37;27.00;55.00
54832;DHT22;40730;53.068;6.572;2023-06-14T10:05:05;26.90;55.50
54832;DHT22;40730;53.068;6.572;2023-06-14T10:07:37;26.90;55.10
54832;DHT22;40730;53.068;6.572;2023-06-14T10:10:04;27.20;56.00
54832;DHT22;40730;53.068;6.572;2023-06-14T10:12:34;27.10;54.70
54832;DHT22;40730;53.068;6.572;2023-06-14T10:15:02;26.60;55.10
54832;DHT22;40730;53.068;6.572;2023-06-14T10:17:46;26.60;55.60
54832;DHT22;40730;53.068;6.572;2023-06-14T10:20:30;26.60;55.00
54832;DHT22;40730;53.068;6.572;2023-06-14T10:23:18;26.20;54.60
54832;DHT22;40730;53.068;6.572;2023-06-14T10:25:44;25.60;55.50
54832;DHT22;40730;53.068;6.572;2023-06-14T10:28:20;25.10;55.50
54832;DHT22;40730;53.068;6.572;2023-06-14T10:33:33;25.50;56.10
54832;DHT22;40730;53.068;6.572;2023-06-14T10:39:39;26.30;54.80
54832;DHT22;40730;53.068;6.572;2023-06-14T10:41:52;26.40;55.60
54832;DHT22;40730;53.068;6.572;2023-06-14T10:46:54;27.50;54.00
54832;DHT22;40730;53.068;6.572;2023-06-14T10:49:40;27.50;53.50
54832;DHT22;40730;53.068;6.572;2023-06-14T10:52:13;27.30;52.60
54832;DHT22;40730;53.068;6.572;2023-06-14T10:55:06;27.40;51.80
54832;DHT22;40730;53.068;6.572;2023-06-14T10:57:50;26.60;51.90
54832;DHT22;40730;53.068;6.572;2023-06-14T11:00:19;26.60;51.20
54832;DHT22;40730;53.068;6.572;2023-06-14T11:05:26;27.00;50.00
54832;DHT22;40730;53.068;6.572;2023-06-14T11:08:07;26.70;49.70
54832;DHT22;40730;53.068;6.572;2023-06-14T11:10:40;26.80;50.00
54832;DHT22;40730;53.068;6.572;2023-06-14T11:13:08;26.80;49.70
54832;DHT22;40730;53.068;6.572;2023-06-14T11:15:38;27.20;49.60
54832;DHT22;40730;53.068;6.572;2023-06-14T11:18:08;26.50;48.70
54832;DHT22;40730;53.068;6.572;2023-06-14T11:20:37;26.80;49.50
54832;DHT22;40730;53.068;6.572;2023-06-14T11:23:03;26.90;48.90
54832;DHT22;40730;53.068;6.572;2023-06-14T11:25:30;26.80;49.00
54832;DHT22;40730;53.068;6.572;2023-06-14T11:27:56;27.20;49.40
54832;DHT22;40730;53.068;6.572;2023-06-14T11:30:22;28.00;48.50
54832;DHT22;40730;53.068;6.572;2023-06-14T11:32:49;28.60;47.60
54832;DHT22;40730;53.068;6.572;2023-06-14T11:35:16;28.80;47.20
54832;DHT22;40730;53.068;6.572;2023-06-14T11:37:41;29.10;47.40
54832;DHT22;40730;53.068;6.572;2023-06-14T11:40:08;29.00;47.50
54832;DHT22;40730;53.068;6.572;2023-06-14T11:42:36;28.70;47.70
54832;DHT22;40730;53.068;6.572;2023-06-14T11:45:02;28.40;47.80
54832;DHT22;40730;53.068;6.572;2023-06-14T11:47:32;28.60;47.90
54832;DHT22;40730;53.068;6.572;2023-06-14T11:50:02;28.90;47.40
54832;DHT22;40730;53.068;6.572;2023-06-14T11:52:28;28.30;47.30
54832;DHT22;40730;53.068;6.572;2023-06-14T11:54:54;28.00;47.40
54832;DHT22;40730;53.068;6.572;2023-06-14T11:57:20;28.10;47.90
54832;DHT22;40730;53.068;6.572;2023-06-14T11:59:46;28.00;47.60
54832;DHT22;40730;53.068;6.572;2023-06-14T12:02:15;28.00;48.00
54832;DHT22;40730;53.068;6.572;2023-06-14T12:04:42;28.40;47.90
54832;DHT22;40730;53.068;6.572;2023-06-14T12:07:12;28.00;48.10
54832;DHT22;40730;53.068;6.572;2023-06-14T12:12:25;27.30;48.60
54832;DHT22;40730;53.068;6.572;2023-06-14T12:14:51;28.00;48.70
54832;DHT22;40730;53.068;6.572;2023-06-14T12:17:18;28.80;48.70
54832;DHT22;40730;53.068;6.572;2023-06-14T12:19:45;28.60;47.80
54832;DHT22;40730;53.068;6.572;2023-06-14T12:22:11;28.90;47.70
54832;DHT22;40730;53.068;6.572;2023-06-14T12:24:37;29.40;47.00
54832;DHT22;40730;53.068;6.572;2023-06-14T12:27:04;29.40;46.40
54832;DHT22;40730;53.068;6.572;2023-06-14T12:29:33;29.50;46.10
54832;DHT22;40730;53.068;6.572;2023-06-14T12:31:59;29.60;46.10
54832;DHT22;40730;53.068;6.572;2023-06-14T12:34:25;29.70;46.00
54832;DHT22;40730;53.068;6.572;2023-06-14T12:36:55;29.60;45.90
54832;DHT22;40730;53.068;6.572;2023-06-14T12:39:22;29.50;46.40
54832;DHT22;40730;53.068;6.572;2023-06-14T12:41:48;29.40;45.90
54832;DHT22;40730;53.068;6.572;2023-06-14T12:44:14;29.40;46.40
54832;DHT22;40730;53.068;6.572;2023-06-14T12:46:41;29.10;46.60
54832;DHT22;40730;53.068;6.572;2023-06-14T12:49:09;29.10;46.50
54832;DHT22;40730;53.068;6.572;2023-06-14T12:51:35;28.90;46.80
54832;DHT22;40730;53.068;6.572;2023-06-14T12:54:00;29.10;46.50
54832;DHT22;40730;53.068;6.572;2023-06-14T12:56:26;29.30;46.20
54832;DHT22;40730;53.068;6.572;2023-06-14T12:58:52;29.20;46.10
54832;DHT22;40730;53.068;6.572;2023-06-14T13:01:18;28.60;46.30
54832;DHT22;40730;53.068;6.572;2023-06-14T13:03:48;28.20;47.30
54832;DHT22;40730;53.068;6.572;2023-06-14T13:06:16;28.50;46.70
54832;DHT22;40730;53.068;6.572;2023-06-14T13:08:41;28.40;46.90
54832;DHT22;40730;53.068;6.572;2023-06-14T13:11:07;28.60;46.70
54832;DHT22;40730;53.068;6.572;2023-06-14T13:13:33;28.90;45.80
54832;DHT22;40730;53.068;6.572;2023-06-14T13:15:58;29.30;46.30
54832;DHT22;40730;53.068;6.572;2023-06-14T13:18:24;29.40;46.40
54832;DHT22;40730;53.068;6.572;2023-06-14T13:20:50;29.10;45.90
54832;DHT22;40730;53.068;6.572;2023-06-14T13:23:16;28.30;46.10
54832;DHT22;40730;53.068;6.572;2023-06-14T13:25:41;27.80;47.00
54832;DHT22;40730;53.068;6.572;2023-06-14T13:28:07;27.80;46.80
54832;DHT22;40730;53.068;6.572;2023-06-14T13:30:33;27.60;46.70
54832;DHT22;40730;53.068;6.572;2023-06-14T13:32:58;27.30;47.10
54832;DHT22;40730;53.068;6.572;2023-06-14T13:35:24;26.90;47.90
54832;DHT22;40730;53.068;6.572;2023-06-14T13:37:51;26.60;47.90
54832;DHT22;40730;53.068;6.572;2023-06-14T13:40:17;26.50;48.30
54832;DHT22;40730;53.068;6.572;2023-06-14T13:42:42;26.60;48.70
54832;DHT22;40730;53.068;6.572;2023-06-14T13:45:09;26.60;48.30
54832;DHT22;40730;53.068;6.572;2023-06-14T13:47:36;26.80;48.30
54832;DHT22;40730;53.068;6.572;2023-06-14T13:50:03;26.90;48.60
54832;DHT22;40730;53.068;6.572;2023-06-14T13:52:28;26.30;48.20
54832;DHT22;40730;53.068;6.572;2023-06-14T13:54:54;25.90;48.70
54832;DHT22;40730;53.068;6.572;2023-06-14T13:57:20;25.70;48.90
54832;DHT22;40730;53.068;6.572;2023-06-14T13:59:45;25.50;49.30
54832;DHT22;40730;53.068;6.572;2023-06-14T14:02:12;25.50;50.20
54832;DHT22;40730;53.068;6.572;2023-06-14T14:04:39;25.70;50.00
54832;DHT22;40730;53.068;6.572;2023-06-14T14:07:05;25.80;49.90
54832;DHT22;40730;53.068;6.572;2023-06-14T14:09:32;25.80;49.60
54832;DHT22;40730;53.068;6.572;2023-06-14T14:11:58;25.80;49.80
54832;DHT22;40730;53.068;6.572;2023-06-14T14:14:24;25.80;49.60
54832;DHT22;40730;53.068;6.572;2023-06-14T14:16:50;25.60;49.60
54832;DHT22;40730;53.068;6.572;2023-06-14T14:19:20;25.60;49.80
54832;DHT22;40730;53.068;6.572;2023-06-14T14:21:46;25.80;50.20
54832;DHT22;40730;53.068;6.572;2023-06-14T14:24:12;25.90;50.00
54832;DHT22;40730;53.068;6.572;2023-06-14T14:26:38;25.90;49.70
54832;DHT22;40730;53.068;6.572;2023-06-14T14:29:04;25.80;49.50
54832;DHT22;40730;53.068;6.572;2023-06-14T14:31:30;25.60;49.70
54832;DHT22;40730;53.068;6.572;2023-06-14T14:33:55;25.40;50.00
54832;DHT22;40730;53.068;6.572;2023-06-14T14:36:21;25.30;50.20
54832;DHT22;40730;53.068;6.572;2023-06-14T14:38:46;25.30;50.80
54832;DHT22;40730;53.068;6.572;2023-06-14T14:41:13;25.30;50.80
54832;DHT22;40730;53.068;6.572;2023-06-14T14:43:38;25.20;50.80
54832;DHT22;40730;53.068;6.572;2023-06-14T14:46:04;25.00;50.60
54832;DHT22;40730;53.068;6.572;2023-06-14T14:48:30;25.20;50.70
54832;DHT22;40730;53.068;6.572;2023-06-14T14:50:56;25.00;51.20
54832;DHT22;40730;53.068;6.572;2023-06-14T14:53:21;25.00;51.80
54832;DHT22;40730;53.068;6.572;2023-06-14T14:55:48;25.00;52.50
54832;DHT22;40730;53.068;6.572;2023-06-14T14:58:14;25.00;51.40
54832;DHT22;40730;53.068;6.572;2023-06-14T15:00:47;25.00;51.50
54832;DHT22;40730;53.068;6.572;2023-06-14T15:03:13;24.90;51.30
54832;DHT22;40730;53.068;6.572;2023-06-14T15:05:39;25.00;52.00
54832;DHT22;40730;53.068;6.572;2023-06-14T15:08:05;24.80;50.50
54832;DHT22;40730;53.068;6.572;2023-06-14T15:10:37;25.10;50.40
54832;DHT22;40730;53.068;6.572;2023-06-14T15:13:05;25.30;50.60
54832;DHT22;40730;53.068;6.572;2023-06-14T15:15:31;25.40;50.60
54832;DHT22;40730;53.068;6.572;2023-06-14T15:17:57;25.50;51.50
54832;DHT22;40730;53.068;6.572;2023-06-14T15:20:22;25.50;51.40
54832;DHT22;40730;53.068;6.572;2023-06-14T15:22:48;25.60;51.60
54832;DHT22;40730;53.068;6.572;2023-06-14T15:25:13;25.20;50.90
54832;DHT22;40730;53.068;6.572;2023-06-14T15:27:39;24.90;51.30
54832;DHT22;40730;53.068;6.572;2023-06-14T15:30:05;24.80;51.20
54832;DHT22;40730;53.068;6.572;2023-06-14T15:32:31;24.50;51.10
54832;DHT22;40730;53.068;6.572;2023-06-14T15:34:57;24.40;51.30
54832;DHT22;40730;53.068;6.572;2023-06-14T15:37:22;24.30;51.50
54832;DHT22;40730;53.068;6.572;2023-06-14T15:39:49;24.40;52.10
54832;DHT22;40730;53.068;6.572;2023-06-14T15:42:15;24.40;52.10
54832;DHT22;40730;53.068;6.572;2023-06-14T15:44:41;24.50;52.00
54832;DHT22;40730;53.068;6.572;2023-06-14T15:47:08;24.50;51.80
54832;DHT22;40730;53.068;6.572;2023-06-14T15:49:33;24.50;51.80